Kansas City, MO

10:31 AM CDT on September 05, 2015 (GMT -0500)
Scott's North Kansas City Station | | Change Station
CLOSE
Current Station
Personal Weather Station
Location: Kansas City, MO
Elevation: 758 ft
Nearby Weather Stations

Elev 758 ft 39.15 °N, 94.57 °W | Updated 12 minutes ago

Clear
Clear
84.8 °F
Feels Like 90 °F
N
1.0
Wind Variable Wind from SSW
Gusts 4.0 mph

Today
High -- | Low -- °F
--% Chance of Precip.
Yesterday
High -- | Low -- °F
Precip. -- in
6:50 AM 7:43 PM
Waning Gibbous, 47% visible
Pressure 29.99 in
Visibility 10.0 miles
Clouds Clear
Heat Index 90 °F
Dew Point 72 °F
Humidity 65%
Rainfall 0.00 in
Snow Depth Not available.
UV 4 out of 12
Pollen 10.10 out of 12
Air Quality Not available.
Flu Activity Not available.
METAR KMKC 051454Z 19009KT 10SM CLR 29/22 A3002 RMK AO2 SLP155 T02940217 50005
Pressure 29.99 in
Visibility 10.0 miles
Clouds Clear
Heat Index 90 °F
Dew Point 72 °F
Humidity 65%
Rainfall 0.00 in
Snow Depth Not available.
UV 4 out of 12
Pollen 10.10 out of 12
Air Quality Not available.
Flu Activity Not available.
METAR KMKC 051454Z 19009KT 10SM CLR 29/22 A3002 RMK AO2 SLP155 T02940217 50005

10-Day Weather Forecast

×

Almanac

Astronomy

Sep. 05, 2015 Rise Set
Actual Time
Civil Twilight
Nautical Twilight
Astronomical Twilight
Moon
Length of Visible Light
Length of Day
Tomorrow will be .
, % of the Moon is Illuminated

Today's Extremes

State Highs State Lows

Community

WunderPhotos

Upload Photos

1,852,482 photos uploaded!

WunderBlogs® & News

Nearby

Air Quality

  Air Quality AQ Index Pollutant
Not available.

Snow Depth

Station Depth Elevation

Earthquake Activity

City Distance Mag. Time & Date
Minimum magnitude displayed is 2.5.

Coastal Water Temperatures

Place Temperature

Stations

Nearby Weather Stations

Station Location Temp. Windchill Dew Point Humidity Wind Precip. Elev Updated Type